sensor_id;sensor_type;location;lat;lon;timestamp;pressure;altitude;pressure_sealevel;temperature;humidity
60817;BME280;51921;51.518;-3.188;2023-01-10T00:02:16;101049.82;;;3.26;96.66
60817;BME280;51921;51.518;-3.188;2023-01-10T00:04:42;101050.47;;;3.23;99.12
60817;BME280;51921;51.518;-3.188;2023-01-10T00:07:07;101046.94;;;2.79;100.00
60817;BME280;51921;51.518;-3.188;2023-01-10T00:11:58;101042.89;;;4.35;93.80
60817;BME280;51921;51.518;-3.188;2023-01-10T00:14:26;101041.49;;;5.18;90.45
60817;BME280;51921;51.518;-3.188;2023-01-10T00:16:49;101044.81;;;5.17;88.95
60817;BME280;51921;51.518;-3.188;2023-01-10T00:19:15;101044.36;;;5.64;86.12
60817;BME280;51921;51.518;-3.188;2023-01-10T00:21:41;101045.09;;;4.29;90.84
60817;BME280;51921;51.518;-3.188;2023-01-10T00:24:07;101040.85;;;4.37;89.67
60817;BME280;51921;51.518;-3.188;2023-01-10T00:26:32;101053.12;;;3.96;92.23
60817;BME280;51921;51.518;-3.188;2023-01-10T00:28:57;101056.43;;;5.14;88.81
60817;BME280;51921;51.518;-3.188;2023-01-10T00:31:23;101066.06;;;4.39;88.89
60817;BME280;51921;51.518;-3.188;2023-01-10T00:33:48;101073.52;;;5.17;87.82
60817;BME280;51921;51.518;-3.188;2023-01-10T00:36:14;101085.48;;;4.81;89.41
60817;BME280;51921;51.518;-3.188;2023-01-10T00:38:39;101092.77;;;4.60;88.76
60817;BME280;51921;51.518;-3.188;2023-01-10T00:41:05;101090.24;;;6.34;85.66
60817;BME280;51921;51.518;-3.188;2023-01-10T00:43:30;101081.94;;;3.59;96.41
60817;BME280;51921;51.518;-3.188;2023-01-10T00:45:56;101073.02;;;2.49;100.00
60817;BME280;51921;51.518;-3.188;2023-01-10T00:48:21;101082.08;;;2.77;100.00
60817;BME280;51921;51.518;-3.188;2023-01-10T00:50:47;101073.03;;;4.32;96.02
60817;BME280;51921;51.518;-3.188;2023-01-10T00:53:12;101069.54;;;3.32;100.00
60817;BME280;51921;51.518;-3.188;2023-01-10T00:55:43;101070.58;;;3.98;97.84
60817;BME280;51921;51.518;-3.188;2023-01-10T00:58:03;101074.36;;;1.94;100.00
60817;BME280;51921;51.518;-3.188;2023-01-10T01:00:28;101072.63;;;2.93;100.00
60817;BME280;51921;51.518;-3.188;2023-01-10T01:02:54;101074.80;;;2.51;100.00
60817;BME280;51921;51.518;-3.188;2023-01-10T01:05:20;101071.91;;;0.99;100.00
60817;BME280;51921;51.518;-3.188;2023-01-10T01:07:47;101070.26;;;3.46;100.00
60817;BME280;51921;51.518;-3.188;2023-01-10T01:10:11;101060.46;;;4.02;100.00
60817;BME280;51921;51.518;-3.188;2023-01-10T01:12:36;101056.99;;;5.05;99.35
60817;BME280;51921;51.518;-3.188;2023-01-10T01:15:01;101050.40;;;6.38;90.15
60817;BME280;51921;51.518;-3.188;2023-01-10T01:17:27;101043.21;;;5.17;88.92
60817;BME280;51921;51.518;-3.188;2023-01-10T01:19:52;101041.72;;;5.65;88.82
60817;BME280;51921;51.518;-3.188;2023-01-10T01:22:18;101044.14;;;4.68;93.30
60817;BME280;51921;51.518;-3.188;2023-01-10T01:24:43;101035.07;;;5.74;89.65
60817;BME280;51921;51.518;-3.188;2023-01-10T01:27:09;101035.49;;;5.00;91.92
60817;BME280;51921;51.518;-3.188;2023-01-10T01:29:34;101035.23;;;4.96;93.61
60817;BME280;51921;51.518;-3.188;2023-01-10T01:32:00;101031.15;;;4.74;97.15
60817;BME280;51921;51.518;-3.188;2023-01-10T01:34:25;101025.67;;;4.62;95.78
60817;BME280;51921;51.518;-3.188;2023-01-10T01:36:51;101026.37;;;4.73;95.72
60817;BME280;51921;51.518;-3.188;2023-01-10T01:39:17;101017.83;;;4.99;94.90
60817;BME280;51921;51.518;-3.188;2023-01-10T01:41:43;101015.66;;;5.50;91.02
60817;BME280;51921;51.518;-3.188;2023-01-10T01:44:13;101010.72;;;5.84;91.37
60817;BME280;51921;51.518;-3.188;2023-01-10T01:46:37;101013.11;;;5.92;89.45
60817;BME280;51921;51.518;-3.188;2023-01-10T01:48:59;101019.51;;;6.22;88.63
60817;BME280;51921;51.518;-3.188;2023-01-10T01:51:27;101018.59;;;5.78;89.58
60817;BME280;51921;51.518;-3.188;2023-01-10T01:53:53;101019.75;;;5.96;87.04
60817;BME280;51921;51.518;-3.188;2023-01-10T01:56:18;101019.07;;;6.00;88.22
60817;BME280;51921;51.518;-3.188;2023-01-10T01:58:46;101014.67;;;5.95;87.21
60817;BME280;51921;51.518;-3.188;2023-01-10T02:01:07;101014.05;;;5.77;85.70
60817;BME280;51921;51.518;-3.188;2023-01-10T02:03:32;101007.77;;;6.64;86.25
60817;BME280;51921;51.518;-3.188;2023-01-10T02:05:57;101002.54;;;4.60;94.46
60817;BME280;51921;51.518;-3.188;2023-01-10T02:08:23;100994.64;;;5.32;94.05
60817;BME280;51921;51.518;-3.188;2023-01-10T02:10:52;100992.09;;;5.47;92.80
60817;BME280;51921;51.518;-3.188;2023-01-10T02:13:18;100990.72;;;5.69;93.07
60817;BME280;51921;51.518;-3.188;2023-01-10T02:15:40;100993.67;;;4.86;97.61
60817;BME280;51921;51.518;-3.188;2023-01-10T02:18:05;100990.68;;;5.01;99.05
60817;BME280;51921;51.518;-3.188;2023-01-10T02:20:37;100986.75;;;4.29;100.00
60817;BME280;51921;51.518;-3.188;2023-01-10T02:23:12;100983.45;;;4.34;100.00
60817;BME280;51921;51.518;-3.188;2023-01-10T02:32:42;100953.40;;;4.44;100.00
60817;BME280;51921;51.518;-3.188;2023-01-10T02:35:14;100948.13;;;4.29;100.00
60817;BME280;51921;51.518;-3.188;2023-01-10T02:37:39;100950.43;;;3.59;100.00
60817;BME280;51921;51.518;-3.188;2023-01-10T02:39:58;100947.19;;;4.70;100.00
60817;BME280;51921;51.518;-3.188;2023-01-10T02:42:24;100951.48;;;4.70;100.00
60817;BME280;51921;51.518;-3.188;2023-01-10T02:44:52;100949.05;;;4.70;100.00
60817;BME280;51921;51.518;-3.188;2023-01-10T02:47:12;100942.78;;;5.04;100.00
60817;BME280;51921;51.518;-3.188;2023-01-10T02:49:41;100938.94;;;5.11;100.00
60817;BME280;51921;51.518;-3.188;2023-01-10T02:52:03;100938.53;;;4.65;100.00
60817;BME280;51921;51.518;-3.188;2023-01-10T02:54:28;100936.72;;;5.74;100.00
60817;BME280;51921;51.518;-3.188;2023-01-10T02:57:05;100929.44;;;6.43;94.57
60817;BME280;51921;51.518;-3.188;2023-01-10T02:59:33;100920.08;;;5.52;93.71
60817;BME280;51921;51.518;-3.188;2023-01-10T03:01:52;100914.47;;;5.94;92.91
60817;BME280;51921;51.518;-3.188;2023-01-10T03:04:17;100903.24;;;6.21;90.62
60817;BME280;51921;51.518;-3.188;2023-01-10T03:06:42;100900.26;;;6.67;88.84
60817;BME280;51921;51.518;-3.188;2023-01-10T03:09:05;100895.54;;;6.87;87.17
60817;BME280;51921;51.518;-3.188;2023-01-10T03:11:29;100893.26;;;7.06;85.99
60817;BME280;51921;51.518;-3.188;2023-01-10T03:13:56;100898.39;;;6.31;88.51
60817;BME280;51921;51.518;-3.188;2023-01-10T03:16:20;100889.69;;;4.92;94.81
60817;BME280;51921;51.518;-3.188;2023-01-10T03:18:46;100882.54;;;5.55;96.13
60817;BME280;51921;51.518;-3.188;2023-01-10T03:21:10;100876.90;;;4.94;100.00
60817;BME280;51921;51.518;-3.188;2023-01-10T03:23:35;100869.10;;;4.69;100.00
60817;BME280;51921;51.518;-3.188;2023-01-10T03:26:01;100871.93;;;5.16;100.00
60817;BME280;51921;51.518;-3.188;2023-01-10T03:28:30;100864.64;;;4.78;100.00
60817;BME280;51921;51.518;-3.188;2023-01-10T03:30:54;100865.18;;;5.15;100.00
60817;BME280;51921;51.518;-3.188;2023-01-10T03:33:19;100857.50;;;4.35;100.00
60817;BME280;51921;51.518;-3.188;2023-01-10T03:35:57;100850.59;;;4.66;100.00
60817;BME280;51921;51.518;-3.188;2023-01-10T03:38:10;100850.82;;;4.60;100.00
60817;BME280;51921;51.518;-3.188;2023-01-10T03:40:39;100852.86;;;4.05;100.00
60817;BME280;51921;51.518;-3.188;2023-01-10T03:43:02;100847.89;;;4.50;100.00
60817;BME280;51921;51.518;-3.188;2023-01-10T03:45:29;100851.97;;;4.37;100.00
60817;BME280;51921;51.518;-3.188;2023-01-10T03:47:52;100848.61;;;4.35;100.00
60817;BME280;51921;51.518;-3.188;2023-01-10T03:50:19;100848.38;;;4.68;100.00
60817;BME280;51921;51.518;-3.188;2023-01-10T03:52:41;100849.07;;;4.86;100.00
60817;BME280;51921;51.518;-3.188;2023-01-10T03:55:10;100854.71;;;4.20;100.00
60817;BME280;51921;51.518;-3.188;2023-01-10T03:57:32;100853.68;;;4.91;100.00
60817;BME280;51921;51.518;-3.188;2023-01-10T03:59:58;100857.40;;;4.35;100.00
60817;BME280;51921;51.518;-3.188;2023-01-10T04:02:24;100852.86;;;4.31;100.00
60817;BME280;51921;51.518;-3.188;2023-01-10T04:04:48;100853.25;;;4.53;100.00
60817;BME280;51921;51.518;-3.188;2023-01-10T04:07:13;100851.61;;;4.48;100.00
60817;BME280;51921;51.518;-3.188;2023-01-10T04:09:39;100848.72;;;4.17;100.00
60817;BME280;51921;51.518;-3.188;2023-01-10T04:12:05;100847.85;;;4.54;100.00
60817;BME280;51921;51.518;-3.188;2023-01-10T04:14:30;100845.56;;;5.23;100.00
60817;BME280;51921;51.518;-3.188;2023-01-10T04:16:55;100840.53;;;5.30;100.00
60817;BME280;51921;51.518;-3.188;2023-01-10T04:19:20;100834.31;;;5.14;100.00
60817;BME280;51921;51.518;-3.188;2023-01-10T04:21:46;100829.79;;;5.14;100.00
60817;BME280;51921;51.518;-3.188;2023-01-10T04:24:11;100823.46;;;4.82;100.00
60817;BME280;51921;51.518;-3.188;2023-01-10T04:26:37;100819.65;;;4.27;100.00
60817;BME280;51921;51.518;-3.188;2023-01-10T04:29:02;100821.33;;;4.06;100.00
60817;BME280;51921;51.518;-3.188;2023-01-10T04:31:28;100811.67;;;4.05;100.00
60817;BME280;51921;51.518;-3.188;2023-01-10T04:33:59;100803.27;;;4.34;100.00
60817;BME280;51921;51.518;-3.188;2023-01-10T04:36:19;100797.71;;;4.87;100.00
60817;BME280;51921;51.518;-3.188;2023-01-10T04:38:45;100784.87;;;4.23;100.00
60817;BME280;51921;51.518;-3.188;2023-01-10T04:41:10;100777.64;;;5.18;100.00
60817;BME280;51921;51.518;-3.188;2023-01-10T04:43:35;100770.72;;;5.51;100.00
60817;BME280;51921;51.518;-3.188;2023-01-10T04:46:01;100761.90;;;5.53;100.00
60817;BME280;51921;51.518;-3.188;2023-01-10T04:48:26;100752.40;;;5.54;100.00
60817;BME280;51921;51.518;-3.188;2023-01-10T04:50:52;100748.97;;;4.62;100.00
60817;BME280;51921;51.518;-3.188;2023-01-10T04:53:18;100742.14;;;3.83;100.00
60817;BME280;51921;51.518;-3.188;2023-01-10T04:55:43;100741.89;;;4.49;100.00
60817;BME280;51921;51.518;-3.188;2023-01-10T04:58:08;100738.03;;;5.62;100.00
60817;BME280;51921;51.518;-3.188;2023-01-10T05:00:34;100737.83;;;4.67;100.00
60817;BME280;51921;51.518;-3.188;2023-01-10T05:03:00;100737.64;;;5.04;100.00
60817;BME280;51921;51.518;-3.188;2023-01-10T05:05:25;100730.77;;;5.90;100.00
60817;BME280;51921;51.518;-3.188;2023-01-10T05:07:51;100721.10;;;6.54;100.00
60817;BME280;51921;51.518;-3.188;2023-01-10T05:10:16;100720.30;;;5.50;100.00
60817;BME280;51921;51.518;-3.188;2023-01-10T05:12:41;100712.31;;;4.83;100.00
60817;BME280;51921;51.518;-3.188;2023-01-10T05:15:08;100702.56;;;4.90;100.00
60817;BME280;51921;51.518;-3.188;2023-01-10T05:17:33;100698.00;;;4.49;100.00
60817;BME280;51921;51.518;-3.188;2023-01-10T05:19:58;100691.46;;;3.89;100.00
60817;BME280;51921;51.518;-3.188;2023-01-10T05:22:24;100685.67;;;4.29;100.00
60817;BME280;51921;51.518;-3.188;2023-01-10T05:24:49;100677.12;;;3.59;100.00
60817;BME280;51921;51.518;-3.188;2023-01-10T05:27:15;100678.13;;;4.57;100.00
60817;BME280;51921;51.518;-3.188;2023-01-10T05:29:40;100675.72;;;5.06;100.00
60817;BME280;51921;51.518;-3.188;2023-01-10T05:32:06;100669.08;;;5.75;100.00
60817;BME280;51921;51.518;-3.188;2023-01-10T05:34:31;100660.02;;;5.43;100.00
60817;BME280;51921;51.518;-3.188;2023-01-10T05:36:57;100659.16;;;5.11;100.00
60817;BME280;51921;51.518;-3.188;2023-01-10T05:39:23;100649.72;;;3.55;100.00
60817;BME280;51921;51.518;-3.188;2023-01-10T05:41:48;100659.35;;;2.78;100.00
60817;BME280;51921;51.518;-3.188;2023-01-10T05:44:13;100655.37;;;4.17;100.00
60817;BME280;51921;51.518;-3.188;2023-01-10T05:46:40;100650.29;;;4.67;100.00
60817;BME280;51921;51.518;-3.188;2023-01-10T05:49:04;100647.48;;;3.93;100.00
60817;BME280;51921;51.518;-3.188;2023-01-10T05:51:30;100640.74;;;3.56;100.00
60817;BME280;51921;51.518;-3.188;2023-01-10T05:53:56;100632.87;;;4.55;100.00
60817;BME280;51921;51.518;-3.188;2023-01-10T05:56:21;100622.91;;;4.56;100.00
60817;BME280;51921;51.518;-3.188;2023-01-10T05:58:46;100614.73;;;3.26;100.00
60817;BME280;51921;51.518;-3.188;2023-01-10T06:01:11;100610.41;;;3.87;100.00
60817;BME280;51921;51.518;-3.188;2023-01-10T06:03:38;100596.23;;;4.05;100.00
60817;BME280;51921;51.518;-3.188;2023-01-10T06:06:03;100592.40;;;4.66;100.00
60817;BME280;51921;51.518;-3.188;2023-01-10T06:08:29;100592.35;;;5.21;100.00
60817;BME280;51921;51.518;-3.188;2023-01-10T06:10:55;100581.22;;;4.95;100.00
60817;BME280;51921;51.518;-3.188;2023-01-10T06:13:20;100581.69;;;5.31;100.00
60817;BME280;51921;51.518;-3.188;2023-01-10T06:15:45;100574.97;;;4.79;100.00
60817;BME280;51921;51.518;-3.188;2023-01-10T06:20:37;100565.04;;;4.32;100.00
60817;BME280;51921;51.518;-3.188;2023-01-10T06:23:02;100551.84;;;4.91;100.00
60817;BME280;51921;51.518;-3.188;2023-01-10T06:25:28;100552.65;;;4.51;100.00
60817;BME280;51921;51.518;-3.188;2023-01-10T06:27:53;100555.24;;;4.86;100.00
60817;BME280;51921;51.518;-3.188;2023-01-10T06:30:30;100546.06;;;3.91;100.00
60817;BME280;51921;51.518;-3.188;2023-01-10T06:32:44;100532.36;;;4.91;100.00
60817;BME280;51921;51.518;-3.188;2023-01-10T06:35:09;100530.45;;;4.88;100.00
60817;BME280;51921;51.518;-3.188;2023-01-10T06:37:35;100522.40;;;4.80;100.00
60817;BME280;51921;51.518;-3.188;2023-01-10T06:40:01;100511.96;;;4.60;100.00
60817;BME280;51921;51.518;-3.188;2023-01-10T06:42:26;100500.35;;;4.82;100.00
60817;BME280;51921;51.518;-3.188;2023-01-10T06:44:52;100496.65;;;5.15;100.00
60817;BME280;51921;51.518;-3.188;2023-01-10T06:47:17;100494.54;;;5.18;100.00
60817;BME280;51921;51.518;-3.188;2023-01-10T06:49:43;100493.53;;;5.04;100.00
60817;BME280;51921;51.518;-3.188;2023-01-10T06:52:09;100484.11;;;5.37;100.00
60817;BME280;51921;51.518;-3.188;2023-01-10T06:54:34;100478.19;;;4.72;100.00
60817;BME280;51921;51.518;-3.188;2023-01-10T06:56:59;100472.28;;;5.24;100.00
60817;BME280;51921;51.518;-3.188;2023-01-10T06:59:25;100457.89;;;4.36;100.00
60817;BME280;51921;51.518;-3.188;2023-01-10T07:01:51;100446.78;;;4.76;100.00
60817;BME280;51921;51.518;-3.188;2023-01-10T07:04:16;100435.25;;;5.42;100.00
60817;BME280;51921;51.518;-3.188;2023-01-10T07:06:42;100434.39;;;4.92;100.00
60817;BME280;51921;51.518;-3.188;2023-01-10T07:09:07;100427.59;;;4.58;100.00
60817;BME280;51921;51.518;-3.188;2023-01-10T07:11:33;100428.79;;;4.69;100.00
60817;BME280;51921;51.518;-3.188;2023-01-10T07:13:59;100427.57;;;5.36;100.00
60817;BME280;51921;51.518;-3.188;2023-01-10T07:16:23;100426.33;;;5.12;100.00
60817;BME280;51921;51.518;-3.188;2023-01-10T07:18:49;100416.63;;;6.38;100.00
60817;BME280;51921;51.518;-3.188;2023-01-10T07:21:15;100412.23;;;5.75;100.00
60817;BME280;51921;51.518;-3.188;2023-01-10T07:23:40;100410.98;;;5.37;100.00
60817;BME280;51921;51.518;-3.188;2023-01-10T07:26:08;100405.99;;;5.32;100.00
60817;BME280;51921;51.518;-3.188;2023-01-10T07:28:31;100400.20;;;5.19;100.00
60817;BME280;51921;51.518;-3.188;2023-01-10T07:30:58;100398.93;;;5.51;100.00
60817;BME280;51921;51.518;-3.188;2023-01-10T07:33:22;100390.33;;;5.93;100.00
60817;BME280;51921;51.518;-3.188;2023-01-10T07:35:48;100377.18;;;5.69;100.00
60817;BME280;51921;51.518;-3.188;2023-01-10T07:38:13;100379.15;;;3.99;100.00
60817;BME280;51921;51.518;-3.188;2023-01-10T07:40:39;100384.38;;;4.62;100.00
60817;BME280;51921;51.518;-3.188;2023-01-10T07:43:04;100379.39;;;5.27;100.00
60817;BME280;51921;51.518;-3.188;2023-01-10T07:45:30;100365.27;;;5.58;100.00
60817;BME280;51921;51.518;-3.188;2023-01-10T07:47:56;100354.22;;;4.79;100.00
60817;BME280;51921;51.518;-3.188;2023-01-10T07:50:21;100347.38;;;4.50;100.00
60817;BME280;51921;51.518;-3.188;2023-01-10T07:52:46;100346.14;;;5.00;100.00
60817;BME280;51921;51.518;-3.188;2023-01-10T07:55:12;100328.72;;;4.80;100.00
60817;BME280;51921;51.518;-3.188;2023-01-10T07:57:37;100329.63;;;4.89;100.00
60817;BME280;51921;51.518;-3.188;2023-01-10T08:00:04;100320.31;;;5.30;100.00
60817;BME280;51921;51.518;-3.188;2023-01-10T08:02:29;100313.35;;;5.04;100.00
60817;BME280;51921;51.518;-3.188;2023-01-10T08:04:54;100305.80;;;4.91;100.00
60817;BME280;51921;51.518;-3.188;2023-01-10T08:07:20;100313.02;;;4.94;100.00
60817;BME280;51921;51.518;-3.188;2023-01-10T08:09:45;100296.97;;;4.98;100.00
60817;BME280;51921;51.518;-3.188;2023-01-10T08:12:11;100300.32;;;4.91;100.00
60817;BME280;51921;51.518;-3.188;2023-01-10T08:14:37;100294.45;;;5.93;100.00
60817;BME280;51921;51.518;-3.188;2023-01-10T08:17:02;100301.91;;;4.76;100.00
60817;BME280;51921;51.518;-3.188;2023-01-10T08:19:28;100301.03;;;5.85;100.00
60817;BME280;51921;51.518;-3.188;2023-01-10T08:21:53;100293.16;;;4.98;100.00
60817;BME280;51921;51.518;-3.188;2023-01-10T08:24:18;100283.66;;;5.40;100.00
60817;BME280;51921;51.518;-3.188;2023-01-10T08:26:44;100281.56;;;5.61;100.00
60817;BME280;51921;51.518;-3.188;2023-01-10T08:29:09;100278.54;;;4.82;100.00
60817;BME280;51921;51.518;-3.188;2023-01-10T08:31:35;100270.48;;;4.90;100.00
60817;BME280;51921;51.518;-3.188;2023-01-10T08:34:00;100271.92;;;4.88;100.00
60817;BME280;51921;51.518;-3.188;2023-01-10T08:36:26;100273.37;;;6.29;100.00
60817;BME280;51921;51.518;-3.188;2023-01-10T08:38:54;100260.47;;;6.07;100.00
60817;BME280;51921;51.518;-3.188;2023-01-10T08:41:17;100257.97;;;5.86;100.00
60817;BME280;51921;51.518;-3.188;2023-01-10T08:43:42;100246.94;;;5.90;100.00
60817;BME280;51921;51.518;-3.188;2023-01-10T08:46:09;100241.73;;;6.36;100.00
60817;BME280;51921;51.518;-3.188;2023-01-10T08:48:33;100238.53;;;6.86;100.00
60817;BME280;51921;51.518;-3.188;2023-01-10T08:51:04;100236.26;;;6.12;100.00
60817;BME280;51921;51.518;-3.188;2023-01-10T08:53:24;100230.13;;;5.95;100.00
60817;BME280;51921;51.518;-3.188;2023-01-10T08:55:50;100227.89;;;6.11;100.00
60817;BME280;51921;51.518;-3.188;2023-01-10T08:58:15;100228.12;;;6.26;100.00
60817;BME280;51921;51.518;-3.188;2023-01-10T09:00:41;100225.65;;;5.81;100.00
60817;BME280;51921;51.518;-3.188;2023-01-10T09:03:06;100230.57;;;5.62;100.00
60817;BME280;51921;51.518;-3.188;2023-01-10T09:05:32;100230.73;;;5.82;100.00
60817;BME280;51921;51.518;-3.188;2023-01-10T09:07:59;100229.88;;;5.54;100.00
60817;BME280;51921;51.518;-3.188;2023-01-10T09:10:23;100229.91;;;5.55;100.00
60817;BME280;51921;51.518;-3.188;2023-01-10T09:12:48;100230.30;;;5.56;100.00
60817;BME280;51921;51.518;-3.188;2023-01-10T09:15:14;100237.12;;;6.24;100.00
60817;BME280;51921;51.518;-3.188;2023-01-10T09:17:40;100236.41;;;6.13;100.00
60817;BME280;51921;51.518;-3.188;2023-01-10T09:20:06;100230.60;;;5.94;100.00
60817;BME280;51921;51.518;-3.188;2023-01-10T09:22:31;100230.03;;;5.88;100.00
60817;BME280;51921;51.518;-3.188;2023-01-10T09:24:56;100225.49;;;6.33;100.00
60817;BME280;51921;51.518;-3.188;2023-01-10T09:27:22;100216.51;;;5.65;100.00
60817;BME280;51921;51.518;-3.188;2023-01-10T09:29:48;100214.87;;;5.83;100.00
60817;BME280;51921;51.518;-3.188;2023-01-10T09:32:13;100212.41;;;5.35;100.00
60817;BME280;51921;51.518;-3.188;2023-01-10T09:34:38;100211.52;;;5.52;100.00
60817;BME280;51921;51.518;-3.188;2023-01-10T09:37:04;100200.19;;;5.59;100.00
60817;BME280;51921;51.518;-3.188;2023-01-10T09:39:29;100193.97;;;5.86;100.00
60817;BME280;51921;51.518;-3.188;2023-01-10T09:42:04;100199.57;;;5.93;100.00
60817;BME280;51921;51.518;-3.188;2023-01-10T09:44:28;100197.62;;;6.24;100.00
60817;BME280;51921;51.518;-3.188;2023-01-10T09:46:53;100195.58;;;6.70;100.00
60817;BME280;51921;51.518;-3.188;2023-01-10T09:49:19;100198.58;;;5.78;100.00
60817;BME280;51921;51.518;-3.188;2023-01-10T09:51:39;100196.18;;;5.95;100.00
60817;BME280;51921;51.518;-3.188;2023-01-10T09:54:05;100189.77;;;6.48;100.00
60817;BME280;51921;51.518;-3.188;2023-01-10T09:56:29;100190.07;;;6.75;100.00
60817;BME280;51921;51.518;-3.188;2023-01-10T09:58:54;100192.71;;;6.47;100.00
60817;BME280;51921;51.518;-3.188;2023-01-10T10:01:24;100187.04;;;7.34;100.00
60817;BME280;51921;51.518;-3.188;2023-01-10T10:03:50;100186.18;;;7.11;100.00
60817;BME280;51921;51.518;-3.188;2023-01-10T10:06:11;100183.94;;;7.40;100.00
60817;BME280;51921;51.518;-3.188;2023-01-10T10:08:36;100183.59;;;7.00;100.00
60817;BME280;51921;51.518;-3.188;2023-01-10T10:11:20;100183.72;;;7.32;100.00
60817;BME280;51921;51.518;-3.188;2023-01-10T10:13:37;100185.52;;;7.63;100.00
60817;BME280;51921;51.518;-3.188;2023-01-10T10:15:58;100184.03;;;6.79;100.00
60817;BME280;51921;51.518;-3.188;2023-01-10T10:18:27;100182.85;;;7.40;100.00
60817;BME280;51921;51.518;-3.188;2023-01-10T10:20:52;100189.25;;;7.23;100.00
60817;BME280;51921;51.518;-3.188;2023-01-10T10:23:19;100185.75;;;6.99;100.00
60817;BME280;51921;51.518;-3.188;2023-01-10T10:25:45;100181.44;;;7.10;100.00
60817;BME280;51921;51.518;-3.188;2023-01-10T10:28:08;100181.11;;;7.43;100.00
60817;BME280;51921;51.518;-3.188;2023-01-10T10:30:31;100188.86;;;6.97;100.00
60817;BME280;51921;51.518;-3.188;2023-01-10T10:32:59;100183.46;;;6.83;100.00
60817;BME280;51921;51.518;-3.188;2023-01-10T10:35:21;100183.85;;;6.56;100.00
60817;BME280;51921;51.518;-3.188;2023-01-10T10:37:41;100189.26;;;6.60;100.00
60817;BME280;51921;51.518;-3.188;2023-01-10T10:40:14;100179.69;;;7.22;100.00
60817;BME280;51921;51.518;-3.188;2023-01-10T10:42:32;100183.59;;;7.16;100.00
60817;BME280;51921;51.518;-3.188;2023-01-10T10:44:59;100186.29;;;7.42;100.00
60817;BME280;51921;51.518;-3.188;2023-01-10T10:47:22;100194.31;;;7.00;100.00
60817;BME280;51921;51.518;-3.188;2023-01-10T10:49:50;100177.02;;;7.03;100.00
60817;BME280;51921;51.518;-3.188;2023-01-10T10:52:21;100186.40;;;7.44;100.00
60817;BME280;51921;51.518;-3.188;2023-01-10T10:54:38;100177.63;;;6.93;100.00
60817;BME280;51921;51.518;-3.188;2023-01-10T10:57:03;100180.67;;;7.24;100.00
60817;BME280;51921;51.518;-3.188;2023-01-10T10:59:29;100176.42;;;7.04;100.00
60817;BME280;51921;51.518;-3.188;2023-01-10T11:01:54;100166.81;;;7.16;100.00
60817;BME280;51921;51.518;-3.188;2023-01-10T11:04:21;100166.54;;;6.90;100.00
60817;BME280;51921;51.518;-3.188;2023-01-10T11:06:46;100161.44;;;7.38;100.00
60817;BME280;51921;51.518;-3.188;2023-01-10T11:09:10;100158.21;;;7.16;100.00
60817;BME280;51921;51.518;-3.188;2023-01-10T11:11:41;100148.56;;;6.85;100.00
60817;BME280;51921;51.518;-3.188;2023-01-10T11:14:02;100139.72;;;7.43;100.00
60817;BME280;51921;51.518;-3.188;2023-01-10T11:16:28;100137.50;;;7.46;100.00
60817;BME280;51921;51.518;-3.188;2023-01-10T11:21:18;100142.79;;;6.98;100.00
60817;BME280;51921;51.518;-3.188;2023-01-10T11:23:49;100132.60;;;7.25;100.00
60817;BME280;51921;51.518;-3.188;2023-01-10T11:26:20;100118.50;;;7.19;100.00
60817;BME280;51921;51.518;-3.188;2023-01-10T11:28:34;100120.53;;;7.69;100.00
60817;BME280;51921;51.518;-3.188;2023-01-10T11:31:00;100117.08;;;7.08;100.00
60817;BME280;51921;51.518;-3.188;2023-01-10T11:33:27;100116.26;;;7.35;100.00
60817;BME280;51921;51.518;-3.188;2023-01-10T11:35:57;100121.49;;;7.29;100.00
60817;BME280;51921;51.518;-3.188;2023-01-10T11:38:18;100114.98;;;7.46;100.00
60817;BME280;51921;51.518;-3.188;2023-01-10T11:45:33;100095.42;;;7.32;100.00
60817;BME280;51921;51.518;-3.188;2023-01-10T11:48:02;100091.89;;;7.70;100.00
60817;BME280;51921;51.518;-3.188;2023-01-10T11:50:24;100086.49;;;7.88;100.00
60817;BME280;51921;51.518;-3.188;2023-01-10T11:52:49;100095.34;;;7.81;100.00
60817;BME280;51921;51.518;-3.188;2023-01-10T11:55:18;100090.67;;;7.69;100.00
60817;BME280;51921;51.518;-3.188;2023-01-10T11:57:38;100077.63;;;7.79;100.00
60817;BME280;51921;51.518;-3.188;2023-01-10T12:00:06;100072.22;;;8.14;100.00
60817;BME280;51921;51.518;-3.188;2023-01-10T12:02:32;100066.63;;;7.98;100.00
60817;BME280;51921;51.518;-3.188;2023-01-10T12:04:57;100063.87;;;7.76;100.00
60817;BME280;51921;51.518;-3.188;2023-01-10T12:07:20;100067.06;;;7.93;100.00
60817;BME280;51921;51.518;-3.188;2023-01-10T12:09:53;100070.65;;;7.66;100.00
60817;BME280;51921;51.518;-3.188;2023-01-10T12:12:17;100068.20;;;8.16;100.00
60817;BME280;51921;51.518;-3.188;2023-01-10T12:14:37;100059.20;;;7.78;100.00
60817;BME280;51921;51.518;-3.188;2023-01-10T12:17:03;100063.13;;;8.23;100.00
60817;BME280;51921;51.518;-3.188;2023-01-10T12:19:28;100050.85;;;7.94;100.00
60817;BME280;51921;51.518;-3.188;2023-01-10T12:21:54;100050.26;;;8.17;100.00
60817;BME280;51921;51.518;-3.188;2023-01-10T12:24:22;100030.84;;;7.95;100.00
60817;BME280;51921;51.518;-3.188;2023-01-10T12:26:44;100039.36;;;7.83;100.00
60817;BME280;51921;51.518;-3.188;2023-01-10T12:29:13;100031.73;;;7.79;100.00
60817;BME280;51921;51.518;-3.188;2023-01-10T12:31:36;100021.58;;;8.06;100.00
60817;BME280;51921;51.518;-3.188;2023-01-10T12:34:04;100015.08;;;8.33;100.00
60817;BME280;51921;51.518;-3.188;2023-01-10T12:36:35;100016.10;;;8.49;100.00
60817;BME280;51921;51.518;-3.188;2023-01-10T12:38:56;100007.45;;;8.08;100.00
60817;BME280;51921;51.518;-3.188;2023-01-10T12:41:21;100007.47;;;8.13;100.00
60817;BME280;51921;51.518;-3.188;2023-01-10T12:43:43;100009.69;;;8.58;100.00
60817;BME280;51921;51.518;-3.188;2023-01-10T12:46:12;99999.25;;;8.58;100.00
60817;BME280;51921;51.518;-3.188;2023-01-10T12:48:41;99994.18;;;8.60;100.00
60817;BME280;51921;51.518;-3.188;2023-01-10T12:51:00;99983.60;;;8.58;100.00
60817;BME280;51921;51.518;-3.188;2023-01-10T12:53:29;99988.02;;;8.85;100.00